Aegean Tiffany — SVAE9 — position and weather

sailwx.info

Track history (hours):
 
Tides and Currents Weather Stations Pressure Air Temp Water Temp Dewpoint Dewpoint Depression Visibility Wind Speed Wind Dir Waves Ship Positions

Aegean Tiffany

Last reported at 2017-Nov-20 00:30 UTC. Time now 2017-Nov-20 07:53 UTC.
Position N 37°59' E 022°53'.

Length 80 m; draft 5.8 m.

Type: Tanker. MMSI: 240870000.

Date/timePositionNaut miles runAvg speedWind from/ knotsBaromVisibWave heightAir tempDewpointWater temp
2017-Nov-20 00:30N 37°59' E 022°53'4 7.2
2017-Nov-20 00:00N 37°57' E 022°57'3 5.9
2017-Nov-19 23:29N 37°55' E 022°60'1 2.7
2017-Nov-19 23:00N 37°55' E 023°01'3 7.0
2017-Nov-19 22:30N 37°54' E 023°05'4 7.7
2017-Nov-19 22:01N 37°55' E 023°10'4 7.6
2017-Nov-19 21:31N 37°55' E 023°15'4 7.4
2017-Nov-19 21:00N 37°56' E 023°20'4 7.3
2017-Nov-19 20:30N 37°57' E 023°24'3 5.0
2017-Nov-19 20:00N 37°60' E 023°25'4 7.5
2017-Nov-19 19:30N 38°01' E 023°30'2 4.3
2017-Nov-19 19:00N 38°02' E 023°32'0 0.0
2017-Nov-18 23:39N 38°02' E 023°32'0 0.0
2017-Nov-18 23:30N 38°02' E 023°32'1 2.0
2017-Nov-18 23:00N 38°02' E 023°31'0 0.0
2017-Nov-18 22:30N 38°02' E 023°31'0 0.0
2017-Nov-18 22:00N 38°02' E 023°31'0 0.0
2017-Nov-18 21:30N 38°02' E 023°31'0 0.0
2017-Nov-18 21:00N 38°02' E 023°31'0 0.0
2017-Nov-18 20:30N 38°02' E 023°31'0 0.0
2017-Nov-18 20:00N 38°02' E 023°31'0 0.0
2017-Nov-18 19:30N 38°02' E 023°31'0 0.0
2017-Nov-18 19:00N 38°02' E 023°31'0 0.0
2017-Nov-18 18:30N 38°02' E 023°31'0 0.0
2017-Nov-18 18:00N 38°02' E 023°31'0 0.0
2017-Nov-18 17:30N 38°02' E 023°31'0 0.0
2017-Nov-18 17:00N 38°02' E 023°31'0 0.0
2017-Nov-18 16:30N 38°02' E 023°31'0 0.0
2017-Nov-18 16:01N 38°02' E 023°31'0 0.0
2017-Nov-18 15:30N 38°02' E 023°31'0 0.0
2017-Nov-18 15:00N 38°02' E 023°31'0 0.0
2017-Nov-18 14:30N 38°02' E 023°31'0 0.0
2017-Nov-18 14:00N 38°02' E 023°31'0 0.2
2017-Nov-18 13:30N 38°02' E 023°31'1 1.1
2017-Nov-18 13:00N 38°02' E 023°31'0 0.0
2017-Nov-18 12:30N 38°02' E 023°31'3 5.5
2017-Nov-18 11:57N 37°59' E 023°33'3 7.0
2017-Nov-18 11:30N 37°57' E 023°36'1 1.7
2017-Nov-18 11:00N 37°57' E 023°37'0 0.0
2017-Nov-18 10:30N 37°57' E 023°37'0 0.0
2017-Nov-18 10:00N 37°57' E 023°37'0 0.0
2017-Nov-18 09:21N 37°57' E 023°37'0 0.0
2017-Nov-18 09:00N 37°57' E 023°37'0 0.0
2017-Nov-18 08:30N 37°57' E 023°37'0 0.0
2017-Nov-18 08:00N 37°57' E 023°37'3 5.1
2017-Nov-18 07:30N 37°57' E 023°34'4 7.7
2017-Nov-18 07:00N 38°01' E 023°32'1 2.7
2017-Nov-18 06:30N 38°02' E 023°32'0 0.0
2017-Nov-18 06:00N 38°02' E 023°32'0 0.1
2017-Nov-18 05:29N 38°02' E 023°32'3 6.8
2017-Nov-18 04:59N 38°01' E 023°28'3 6.4
2017-Nov-18 04:30N 37°58' E 023°25'3 6.0
2017-Nov-18 04:00N 37°57' E 023°22'4 7.8
2017-Nov-18 03:30N 37°56' E 023°17'4 7.9
2017-Nov-18 03:00N 37°55' E 023°12'4 8.0
2017-Nov-18 02:30N 37°55' E 023°07'4 7.9
2017-Nov-18 02:00N 37°55' E 023°02'4 6.6
2017-Nov-18 01:25N 37°57' E 022°58'3 6.8
2017-Nov-18 01:00N 37°59' E 022°56'4 8.4
2017-Nov-18 00:30N 38°01' E 022°51'4 8.2
2017-Nov-18 00:00N 38°03' E 022°46'4 8.2
2017-Nov-17 23:27N 38°05' E 022°42'  
2017-Nov-13 02:00N 38°01' E 022°50'4 7.7
2017-Nov-13 01:30N 37°59' E 022°54'4 7.1
2017-Nov-13 01:00N 37°57' E 022°58'2 3.4
2017-Nov-13 00:22N 37°55' E 022°60'1 3.9
2017-Nov-13 00:00N 37°55' E 023°02'4 7.7
2017-Nov-12 23:30N 37°54' E 023°06'4 7.7
2017-Nov-12 23:00N 37°55' E 023°11'4 7.7
2017-Nov-12 22:30N 37°56' E 023°16'4 7.6
2017-Nov-12 22:00N 37°57' E 023°21'4 7.6
2017-Nov-12 21:30N 37°58' E 023°25'3 5.1
2017-Nov-12 21:00N 38°00' E 023°27'4 7.7
2017-Nov-12 20:30N 38°02' E 023°31'1 1.7
2017-Nov-12 20:00N 38°02' E 023°32'0 0.0
2017-Nov-12 19:30N 38°02' E 023°32'0 0.0
2017-Nov-12 07:31N 38°02' E 023°32'0 0.3
2017-Nov-12 07:30N 38°02' E 023°32'0 0.0
2017-Nov-12 07:00N 38°02' E 023°32'1 1.3
2017-Nov-12 06:31N 38°02' E 023°31'0 0.7
2017-Nov-12 06:00N 38°02' E 023°31'0 0.0
2017-Nov-12 05:30N 38°02' E 023°31'0 0.0
2017-Nov-12 05:00N 38°02' E 023°31'0 0.0
2017-Nov-12 04:31N 38°02' E 023°31'0 0.0
2017-Nov-12 04:00N 38°02' E 023°31'0 0.0
2017-Nov-12 03:31N 38°02' E 023°31'0 0.0
2017-Nov-12 03:00N 38°02' E 023°31'0 0.0
2017-Nov-12 02:30N 38°02' E 023°31'0 0.0
2017-Nov-12 02:01N 38°02' E 023°31'0 0.0
2017-Nov-12 01:30N 38°02' E 023°31'0 0.0
2017-Nov-12 01:01N 38°02' E 023°31'0 0.0
2017-Nov-12 00:30N 38°02' E 023°31'0 0.0
2017-Nov-12 00:00N 38°02' E 023°31'0 0.0
2017-Nov-11 23:30N 38°02' E 023°31'0 0.0
2017-Nov-11 23:00N 38°02' E 023°31'0 0.0
2017-Nov-11 22:31N 38°02' E 023°31'0 0.0
2017-Nov-11 22:01N 38°02' E 023°31'0 0.0
2017-Nov-11 21:31N 38°02' E 023°31'0 0.0
2017-Nov-11 21:00N 38°02' E 023°31'0 0.0
2017-Nov-11 20:30N 38°02' E 023°31'0 0.0
2017-Nov-11 20:00N 38°02' E 023°31'0 0.0
2017-Nov-11 19:30N 38°02' E 023°31'0 0.0
2017-Nov-11 19:00N 38°02' E 023°31'0 0.0
2017-Nov-11 18:30N 38°02' E 023°31'1 2.0
2017-Nov-11 18:00N 38°02' E 023°32'0 0.0
2017-Nov-10 09:15N 38°02' E 023°32'0 0.0
2017-Nov-10 09:00N 38°02' E 023°32'0 0.3
2017-Nov-10 08:30N 38°02' E 023°32'0 0.9
2017-Nov-10 08:01N 38°02' E 023°32'0 0.0
2017-Nov-10 07:30N 38°02' E 023°32'0 0.0
2017-Nov-10 07:00N 38°02' E 023°32'0 0.0
2017-Nov-10 06:30N 38°02' E 023°32'0 0.0
2017-Nov-10 06:01N 38°02' E 023°32'0 0.0
2017-Nov-10 05:30N 38°02' E 023°32'0 0.0
2017-Nov-10 05:01N 38°02' E 023°32'0 0.1
2017-Nov-10 04:31N 38°02' E 023°32'0 0.0
2017-Nov-10 04:01N 38°02' E 023°32'0 0.1
2017-Nov-10 03:30N 38°02' E 023°32'0 0.0
2017-Nov-10 03:00N 38°02' E 023°32'0 0.7
2017-Nov-10 02:31N 38°02' E 023°31'4 8.4
2017-Nov-10 02:01N 37°60' E 023°27'3 5.4
2017-Nov-10 01:31N 37°58' E 023°25'4 8.6
2017-Nov-10 01:01N 37°57' E 023°20'4 8.6
2017-Nov-10 00:30N 37°56' E 023°14'  
Track history (hours):
 
Tides and Currents Weather Stations Pressure Air Temp Water Temp Dewpoint Dewpoint Depression Visibility Wind Speed Wind Dir Waves Ship Positions

Aegean Tiffany

Last reported at 2017-Nov-20 00:30 UTC. Time now 2017-Nov-20 07:53 UTC.
Position N 37°59' E 022°53'.

Length 80 m; draft 5.8 m.

Type: Tanker. MMSI: 240870000.

Date/timePositionNaut miles runAvg speedWind from/ knotsBaromVisibWave heightAir tempDewpointWater temp
2017-Nov-20 00:30N 37°59' E 022°53'4 7.2
2017-Nov-20 00:00N 37°57' E 022°57'3 5.9
2017-Nov-19 23:29N 37°55' E 022°60'1 2.7
2017-Nov-19 23:00N 37°55' E 023°01'3 7.0
2017-Nov-19 22:30N 37°54' E 023°05'4 7.7
2017-Nov-19 22:01N 37°55' E 023°10'4 7.6
2017-Nov-19 21:31N 37°55' E 023°15'4 7.4
2017-Nov-19 21:00N 37°56' E 023°20'4 7.3
2017-Nov-19 20:30N 37°57' E 023°24'3 5.0
2017-Nov-19 20:00N 37°60' E 023°25'4 7.5
2017-Nov-19 19:30N 38°01' E 023°30'2 4.3
2017-Nov-19 19:00N 38°02' E 023°32'0 0.0
2017-Nov-18 23:39N 38°02' E 023°32'0 0.0
2017-Nov-18 23:30N 38°02' E 023°32'1 2.0
2017-Nov-18 23:00N 38°02' E 023°31'0 0.0
2017-Nov-18 22:30N 38°02' E 023°31'0 0.0
2017-Nov-18 22:00N 38°02' E 023°31'0 0.0
2017-Nov-18 21:30N 38°02' E 023°31'0 0.0
2017-Nov-18 21:00N 38°02' E 023°31'0 0.0
2017-Nov-18 20:30N 38°02' E 023°31'0 0.0
2017-Nov-18 20:00N 38°02' E 023°31'0 0.0
2017-Nov-18 19:30N 38°02' E 023°31'0 0.0
2017-Nov-18 19:00N 38°02' E 023°31'0 0.0
2017-Nov-18 18:30N 38°02' E 023°31'0 0.0
2017-Nov-18 18:00N 38°02' E 023°31'0 0.0
2017-Nov-18 17:30N 38°02' E 023°31'0 0.0
2017-Nov-18 17:00N 38°02' E 023°31'0 0.0
2017-Nov-18 16:30N 38°02' E 023°31'0 0.0
2017-Nov-18 16:01N 38°02' E 023°31'0 0.0
2017-Nov-18 15:30N 38°02' E 023°31'0 0.0
2017-Nov-18 15:00N 38°02' E 023°31'0 0.0
2017-Nov-18 14:30N 38°02' E 023°31'0 0.0
2017-Nov-18 14:00N 38°02' E 023°31'0 0.2
2017-Nov-18 13:30N 38°02' E 023°31'1 1.1
2017-Nov-18 13:00N 38°02' E 023°31'0 0.0
2017-Nov-18 12:30N 38°02' E 023°31'3 5.5
2017-Nov-18 11:57N 37°59' E 023°33'3 7.0
2017-Nov-18 11:30N 37°57' E 023°36'1 1.7
2017-Nov-18 11:00N 37°57' E 023°37'0 0.0
2017-Nov-18 10:30N 37°57' E 023°37'0 0.0
2017-Nov-18 10:00N 37°57' E 023°37'0 0.0
2017-Nov-18 09:21N 37°57' E 023°37'0 0.0
2017-Nov-18 09:00N 37°57' E 023°37'0 0.0
2017-Nov-18 08:30N 37°57' E 023°37'0 0.0
2017-Nov-18 08:00N 37°57' E 023°37'3 5.1
2017-Nov-18 07:30N 37°57' E 023°34'4 7.7
2017-Nov-18 07:00N 38°01' E 023°32'1 2.7
2017-Nov-18 06:30N 38°02' E 023°32'0 0.0
2017-Nov-18 06:00N 38°02' E 023°32'0 0.1
2017-Nov-18 05:29N 38°02' E 023°32'3 6.8
2017-Nov-18 04:59N 38°01' E 023°28'3 6.4
2017-Nov-18 04:30N 37°58' E 023°25'3 6.0
2017-Nov-18 04:00N 37°57' E 023°22'4 7.8
2017-Nov-18 03:30N 37°56' E 023°17'4 7.9
2017-Nov-18 03:00N 37°55' E 023°12'4 8.0
2017-Nov-18 02:30N 37°55' E 023°07'4 7.9
2017-Nov-18 02:00N 37°55' E 023°02'4 6.6
2017-Nov-18 01:25N 37°57' E 022°58'3 6.8
2017-Nov-18 01:00N 37°59' E 022°56'4 8.4
2017-Nov-18 00:30N 38°01' E 022°51'4 8.2
2017-Nov-18 00:00N 38°03' E 022°46'4 8.2
2017-Nov-17 23:27N 38°05' E 022°42'  
2017-Nov-13 02:00N 38°01' E 022°50'4 7.7
2017-Nov-13 01:30N 37°59' E 022°54'4 7.1
2017-Nov-13 01:00N 37°57' E 022°58'2 3.4
2017-Nov-13 00:22N 37°55' E 022°60'1 3.9
2017-Nov-13 00:00N 37°55' E 023°02'4 7.7
2017-Nov-12 23:30N 37°54' E 023°06'4 7.7
2017-Nov-12 23:00N 37°55' E 023°11'4 7.7
2017-Nov-12 22:30N 37°56' E 023°16'4 7.6
2017-Nov-12 22:00N 37°57' E 023°21'4 7.6
2017-Nov-12 21:30N 37°58' E 023°25'3 5.1
2017-Nov-12 21:00N 38°00' E 023°27'4 7.7
2017-Nov-12 20:30N 38°02' E 023°31'1 1.7
2017-Nov-12 20:00N 38°02' E 023°32'0 0.0
2017-Nov-12 19:30N 38°02' E 023°32'0 0.0
2017-Nov-12 07:31N 38°02' E 023°32'0 0.3
2017-Nov-12 07:30N 38°02' E 023°32'0 0.0
2017-Nov-12 07:00N 38°02' E 023°32'1 1.3
2017-Nov-12 06:31N 38°02' E 023°31'0 0.7
2017-Nov-12 06:00N 38°02' E 023°31'0 0.0
2017-Nov-12 05:30N 38°02' E 023°31'0 0.0
2017-Nov-12 05:00N 38°02' E 023°31'0 0.0
2017-Nov-12 04:31N 38°02' E 023°31'0 0.0
2017-Nov-12 04:00N 38°02' E 023°31'0 0.0
2017-Nov-12 03:31N 38°02' E 023°31'0 0.0
2017-Nov-12 03:00N 38°02' E 023°31'0 0.0
2017-Nov-12 02:30N 38°02' E 023°31'0 0.0
2017-Nov-12 02:01N 38°02' E 023°31'0 0.0
2017-Nov-12 01:30N 38°02' E 023°31'0 0.0
2017-Nov-12 01:01N 38°02' E 023°31'0 0.0
2017-Nov-12 00:30N 38°02' E 023°31'0 0.0
2017-Nov-12 00:00N 38°02' E 023°31'0 0.0
2017-Nov-11 23:30N 38°02' E 023°31'0 0.0
2017-Nov-11 23:00N 38°02' E 023°31'0 0.0
2017-Nov-11 22:31N 38°02' E 023°31'0 0.0
2017-Nov-11 22:01N 38°02' E 023°31'0 0.0
2017-Nov-11 21:31N 38°02' E 023°31'0 0.0
2017-Nov-11 21:00N 38°02' E 023°31'0 0.0
2017-Nov-11 20:30N 38°02' E 023°31'0 0.0
2017-Nov-11 20:00N 38°02' E 023°31'0 0.0
2017-Nov-11 19:30N 38°02' E 023°31'0 0.0
2017-Nov-11 19:00N 38°02' E 023°31'0 0.0
2017-Nov-11 18:30N 38°02' E 023°31'1 2.0
2017-Nov-11 18:00N 38°02' E 023°32'0 0.0
2017-Nov-10 09:15N 38°02' E 023°32'0 0.0
2017-Nov-10 09:00N 38°02' E 023°32'0 0.3
2017-Nov-10 08:30N 38°02' E 023°32'0 0.9
2017-Nov-10 08:01N 38°02' E 023°32'0 0.0
2017-Nov-10 07:30N 38°02' E 023°32'0 0.0
2017-Nov-10 07:00N 38°02' E 023°32'0 0.0
2017-Nov-10 06:30N 38°02' E 023°32'0 0.0
2017-Nov-10 06:01N 38°02' E 023°32'0 0.0
2017-Nov-10 05:30N 38°02' E 023°32'0 0.0
2017-Nov-10 05:01N 38°02' E 023°32'0 0.1
2017-Nov-10 04:31N 38°02' E 023°32'0 0.0
2017-Nov-10 04:01N 38°02' E 023°32'0 0.1
2017-Nov-10 03:30N 38°02' E 023°32'0 0.0
2017-Nov-10 03:00N 38°02' E 023°32'0 0.7
2017-Nov-10 02:31N 38°02' E 023°31'4 8.4
2017-Nov-10 02:01N 37°60' E 023°27'3 5.4
2017-Nov-10 01:31N 37°58' E 023°25'4 8.6
2017-Nov-10 01:01N 37°57' E 023°20'4 8.6
2017-Nov-10 00:30N 37°56' E 023°14'  

Dump ship's entire track history